Time;durP1;ratioP1;P1;durP2;ratioP2;P2;SDS_P1;SDS_P2;PMS_P1;PMS_P2;Temp;Humidity;BMP_temperature;BMP_pressure;BME280_temperature;BME280_humidity;BME280_pressure;Samples;Min_cycle;Max_cycle;Signal;HPM_P1;HPM_P2
2023/04/07 00:00:51;;;;;;;16.60;7.60;;;;;;;9.14;50.57;100546.38;5021990;28;20026;-82
2023/04/07 00:03:17;;;;;;;12.38;7.03;;;;;;;9.12;50.39;100540.25;5011444;28;20460;-83
2023/04/07 00:05:42;;;;;;;14.75;7.70;;;;;;;9.15;50.47;100548.06;5010807;28;20030;-82
2023/04/07 00:08:08;;;;;;;18.80;6.97;;;;;;;9.17;50.70;100556.88;5010863;28;20101;-84
2023/04/07 00:10:33;;;;;;;13.93;7.20;;;;;;;9.17;50.60;100549.66;5011075;28;20430;-80
2023/04/07 00:12:59;;;;;;;12.50;7.20;;;;;;;9.12;50.53;100550.97;5010576;28;20095;-83
2023/04/07 00:15:25;;;;;;;14.60;7.30;;;;;;;9.12;50.57;100542.94;5010882;28;20038;-80
2023/04/07 00:17:51;;;;;;;23.67;7.75;;;;;;;9.13;50.05;100547.34;5009513;28;20135;-83
2023/04/07 00:20:16;;;;;;;21.52;8.20;;;;;;;9.10;50.56;100543.06;5010192;28;20025;-80
2023/04/07 00:22:42;;;;;;;22.00;8.68;;;;;;;9.20;50.03;100549.41;5008869;28;20033;-83
2023/04/07 00:25:07;;;;;;;11.38;6.45;;;;;;;9.25;49.53;100551.75;5009742;28;20439;-83
2023/04/07 00:27:33;;;;;;;13.80;7.00;;;;;;;9.20;49.53;100543.22;5010492;28;20038;-82
2023/04/07 00:29:58;;;;;;;13.35;7.15;;;;;;;9.23;49.50;100549.16;5010033;28;20038;-83
2023/04/07 00:32:24;;;;;;;16.73;8.52;;;;;;;9.21;49.43;100543.06;5010074;28;20057;-83
2023/04/07 00:34:49;;;;;;;13.90;7.45;;;;;;;9.21;49.24;100544.91;5009912;28;20026;-83
2023/04/07 00:37:15;;;;;;;17.80;6.85;;;;;;;9.25;48.56;100541.03;4993285;28;20049;-85
2023/04/07 00:39:40;;;;;;;12.65;6.65;;;;;;;9.26;48.77;100540.06;5025761;28;20032;-86
2023/04/07 00:42:06;;;;;;;14.93;7.25;;;;;;;9.27;48.87;100537.25;5010235;28;20037;-85
2023/04/07 00:44:33;;;;;;;11.60;7.13;;;;;;;9.30;48.82;100549.56;5018829;28;20037;-83
2023/04/07 00:46:58;;;;;;;12.88;7.50;;;;;;;9.30;47.82;100538.81;5047703;28;20065;-82
2023/04/07 00:49:25;;;;;;;19.15;7.47;;;;;;;9.32;47.90;100542.25;5044552;28;20026;-85
2023/04/07 00:51:51;;;;;;;13.80;7.90;;;;;;;9.29;47.85;100543.34;5045427;28;20021;-82
2023/04/07 00:54:17;;;;;;;15.75;7.20;;;;;;;9.28;47.98;100552.38;5049694;28;20017;-81
2023/04/07 00:56:43;;;;;;;13.70;8.07;;;;;;;9.22;48.05;100547.47;5038160;28;20067;-83
2023/04/07 00:59:08;;;;;;;11.20;7.20;;;;;;;9.26;48.29;100553.47;5030269;28;20049;-81
2023/04/07 01:01:58;;;;;;;14.02;7.90;;;;;;;9.23;48.11;100553.72;5030349;28;20068;-86
2023/04/07 01:04:36;;;;;;;17.50;7.95;;;;;;;9.15;48.60;100556.97;5031639;28;20060;-81
2023/04/07 01:07:05;;;;;;;13.73;7.40;;;;;;;9.15;48.62;100556.09;5035425;28;20519;-84
2023/04/07 01:09:45;;;;;;;16.30;7.95;;;;;;;9.09;48.89;100556.56;5050348;28;20048;-85
2023/04/07 01:12:33;;;;;;;11.52;7.15;;;;;;;9.04;49.06;100542.66;4995888;28;20474;-83
2023/04/07 01:15:08;;;;;;;14.32;7.10;;;;;;;9.10;49.17;100552.94;5031474;28;20037;-80
2023/04/07 01:17:35;;;;;;;15.68;6.43;;;;;;;9.08;48.89;100546.84;5018585;28;20034;-83
2023/04/07 01:20:04;;;;;;;14.73;7.97;;;;;;;9.10;49.11;100543.06;5015984;28;20022;-80
2023/04/07 01:22:43;;;;;;;21.80;8.48;;;;;;;9.18;48.87;100539.78;5032403;28;20036;-82
2023/04/07 01:25:21;;;;;;;17.25;7.43;;;;;;;9.23;48.60;100545.66;5019650;28;20026;-82
2023/04/07 01:28:37;;;;;;;12.55;7.93;;;;;;;9.24;48.72;100544.66;5011213;28;20417;-80
2023/04/07 01:31:04;;;;;;;10.80;7.10;;;;;;;9.21;48.63;100550.28;5014017;28;20049;-84
2023/04/07 01:33:32;;;;;;;16.25;8.25;;;;;;;9.29;48.35;100545.19;5005315;28;20037;-85
2023/04/07 01:36:00;;;;;;;13.85;7.28;;;;;;;9.30;48.40;100554.94;5008917;28;20029;-84
2023/04/07 01:38:28;;;;;;;19.08;8.13;;;;;;;9.25;48.81;100549.94;5007127;28;20417;-85
2023/04/07 01:40:55;;;;;;;12.57;7.47;;;;;;;9.30;48.54;100552.25;5006999;28;20048;-81
2023/04/07 01:43:22;;;;;;;14.77;7.45;;;;;;;9.12;48.87;100540.25;5007112;28;20105;-84
2023/04/07 01:45:49;;;;;;;11.60;6.85;;;;;;;9.23;48.02;100548.34;5010053;28;20048;-80
2023/04/07 01:48:15;;;;;;;16.20;7.15;;;;;;;9.23;47.96;100542.97;5030245;28;20052;-82
2023/04/07 01:50:42;;;;;;;12.15;6.78;;;;;;;9.20;48.15;100538.69;5029105;28;20113;-83
2023/04/07 01:53:08;;;;;;;10.80;6.97;;;;;;;9.20;47.66;100538.69;5005810;28;20041;-82
2023/04/07 01:55:34;;;;;;;16.10;7.65;;;;;;;9.23;47.78;100546.50;5005526;28;20095;-84
2023/04/07 01:58:05;;;;;;;23.48;8.68;;;;;;;9.25;47.37;100547.25;5006196;28;20034;-84
2023/04/07 02:00:30;;;;;;;20.65;9.93;;;;;;;9.22;47.68;100538.56;5005881;28;20049;-82
2023/04/07 02:03:03;;;;;;;16.35;7.70;;;;;;;9.32;47.22;100549.44;5005332;28;20418;-80
2023/04/07 02:05:30;;;;;;;12.80;8.60;;;;;;;9.36;47.00;100549.09;5005317;28;20034;-81
2023/04/07 02:08:01;;;;;;;15.73;8.73;;;;;;;9.32;46.97;100547.63;5008265;28;20025;-83
2023/04/07 02:10:28;;;;;;;17.50;8.82;;;;;;;9.35;46.86;100541.16;5008859;28;20030;-80
2023/04/07 02:12:55;;;;;;;17.10;9.07;;;;;;;9.32;46.63;100544.94;5008355;28;20038;-84
2023/04/07 02:15:22;;;;;;;16.95;8.90;;;;;;;9.22;46.92;100535.88;5007766;28;20108;-82
2023/04/07 02:17:51;;;;;;;16.67;8.75;;;;;;;9.28;46.86;100554.19;5007727;28;20544;-83
2023/04/07 02:20:17;;;;;;;21.27;10.38;;;;;;;9.27;46.81;100550.66;5010089;28;20038;-86
2023/04/07 02:22:46;;;;;;;21.38;11.07;;;;;;;9.20;46.65;100532.47;5009845;28;20409;-86
2023/04/07 02:25:40;;;;;;;22.67;9.25;;;;;;;9.28;46.82;100556.88;5008607;28;20030;-87
2023/04/07 02:28:06;;;;;;;16.60;9.68;;;;;;;9.29;47.29;100558.59;5006246;28;20045;-87
2023/04/07 02:30:32;;;;;;;23.63;10.15;;;;;;;9.26;47.40;100548.09;4990443;28;20026;-86
2023/04/07 02:32:57;;;;;;;21.30;10.10;;;;;;;9.35;46.56;100558.13;5010608;28;20155;-87
2023/04/07 02:35:23;;;;;;;30.88;10.73;;;;;;;9.42;47.09;100564.72;5010520;28;20128;-87
2023/04/07 02:37:49;;;;;;;24.48;9.85;;;;;;;9.53;46.93;100561.22;5013940;28;20049;-87
2023/04/07 02:40:15;;;;;;;23.17;10.07;;;;;;;9.49;46.68;100554.34;5014032;28;20652;-86
2023/04/07 02:42:40;;;;;;;17.27;9.80;;;;;;;9.42;46.56;100563.88;5012640;28;20030;-85
2023/04/07 02:45:08;;;;;;;22.95;10.43;;;;;;;9.51;46.52;100569.38;5036184;28;20712;-82
2023/04/07 02:47:34;;;;;;;19.35;10.02;;;;;;;9.32;46.68;100569.09;5019616;28;20103;-86
2023/04/07 02:49:59;;;;;;;19.60;9.40;;;;;;;9.34;46.94;100568.97;5010353;28;20037;-85
2023/04/07 02:52:25;;;;;;;17.83;8.80;;;;;;;9.36;46.67;100569.72;5009580;28;20045;-87
2023/04/07 02:54:51;;;;;;;12.88;8.40;;;;;;;9.42;46.83;100575.44;5009928;28;20033;-87
2023/04/07 02:57:16;;;;;;;14.77;9.27;;;;;;;9.50;46.79;100583.78;5010373;28;20042;-86
2023/04/07 02:59:42;;;;;;;19.70;9.25;;;;;;;9.47;46.70;100584.03;5024944;28;20026;-86
2023/04/07 03:02:07;;;;;;;19.50;8.70;;;;;;;9.50;46.83;100578.41;5030857;28;20026;-82
2023/04/07 03:04:33;;;;;;;22.25;11.20;;;;;;;9.57;46.81;100579.63;5033618;28;20060;-86
2023/04/07 03:06:59;;;;;;;15.55;9.45;;;;;;;9.62;46.99;100574.78;5015793;28;20034;-87
2023/04/07 03:09:25;;;;;;;23.55;9.32;;;;;;;9.69;46.90;100578.66;5028666;28;20147;-86
2023/04/07 03:11:50;;;;;;;25.17;9.38;;;;;;;9.79;46.66;100585.03;5013251;28;20034;-85
2023/04/07 03:14:16;;;;;;;21.70;10.48;;;;;;;9.72;46.50;100578.41;5013213;28;20033;-87
2023/04/07 03:16:41;;;;;;;15.43;9.77;;;;;;;9.67;46.69;100580.63;5012849;28;20674;-87
2023/04/07 03:19:08;;;;;;;27.77;9.70;;;;;;;9.53;47.10;100594.28;5017558;28;20033;-85
2023/04/07 03:21:35;;;;;;;21.88;10.40;;;;;;;9.63;46.62;100592.56;5025892;28;20049;-86
2023/04/07 03:24:00;;;;;;;19.60;9.65;;;;;;;9.63;46.98;100589.06;5036445;28;20092;-85
2023/04/07 03:26:26;;;;;;;21.73;10.40;;;;;;;9.67;46.31;100580.63;5034070;28;20030;-88
2023/04/07 03:28:51;;;;;;;27.63;10.93;;;;;;;9.57;46.34;100586.84;5016590;28;20053;-87
2023/04/07 03:31:17;;;;;;;30.45;11.27;;;;;;;9.37;46.85;100593.75;5014556;28;20062;-86
2023/04/07 03:33:42;;;;;;;17.90;10.55;;;;;;;9.41;46.84;100595.22;5018052;28;20045;-82
2023/04/07 03:36:08;;;;;;;22.58;10.50;;;;;;;9.37;46.16;100593.75;5017956;28;20034;-87
2023/04/07 03:38:33;;;;;;;16.92;10.68;;;;;;;9.21;46.72;100593.19;5030967;28;20025;-82
2023/04/07 03:40:59;;;;;;;16.90;9.63;;;;;;;9.18;46.86;100612.22;5037087;28;20057;-83
2023/04/07 03:43:25;;;;;;;23.35;10.15;;;;;;;9.09;46.79;100607.53;5024453;28;20061;-87
2023/04/07 03:45:52;;;;;;;21.45;11.07;;;;;;;9.15;46.86;100615.13;5013639;28;20032;-87
2023/04/07 03:48:18;;;;;;;25.25;11.77;;;;;;;9.06;47.17;100615.81;5012783;28;20069;-87
2023/04/07 03:50:45;;;;;;;21.98;11.15;;;;;;;9.06;46.88;100614.00;5014318;28;20410;-86
2023/04/07 03:53:10;;;;;;;20.73;11.23;;;;;;;9.07;46.63;100609.50;4995486;28;20506;-85
2023/04/07 03:55:36;;;;;;;25.15;12.13;;;;;;;9.09;46.94;100620.97;5014124;28;20037;-87
2023/04/07 03:58:02;;;;;;;21.23;12.38;;;;;;;9.01;46.86;100616.19;5011871;28;20034;-88
2023/04/07 04:00:27;;;;;;;21.30;12.05;;;;;;;9.03;47.14;100621.44;5027767;28;20026;-87
2023/04/07 04:02:53;;;;;;;30.58;13.18;;;;;;;9.03;47.06;100624.09;5014556;28;20121;-88
2023/04/07 04:05:18;;;;;;;24.33;11.90;;;;;;;9.05;46.55;100635.59;5014284;28;20401;-85
2023/04/07 04:07:44;;;;;;;22.98;12.07;;;;;;;8.93;47.11;100615.06;5014241;28;20105;-88
2023/04/07 04:10:09;;;;;;;30.17;12.43;;;;;;;9.04;46.74;100621.31;5013561;28;20030;-87
2023/04/07 04:12:35;;;;;;;28.35;12.82;;;;;;;9.17;46.67;100630.13;5022689;28;20029;-84
2023/04/07 04:15:00;;;;;;;29.67;13.10;;;;;;;9.17;46.52;100629.31;5024660;28;20021;-84
2023/04/07 04:17:26;;;;;;;29.35;13.25;;;;;;;9.20;46.38;100627.22;5030231;28;20117;-84
2023/04/07 04:19:53;;;;;;;31.98;13.63;;;;;;;9.33;46.63;100645.94;5029701;28;20029;-87
2023/04/07 04:22:18;;;;;;;32.85;12.77;;;;;;;9.47;46.28;100653.81;5020020;28;20421;-87
2023/04/07 04:24:44;;;;;;;32.20;13.52;;;;;;;9.52;46.48;100657.00;5013901;28;20054;-90
2023/04/07 04:27:09;;;;;;;35.88;14.35;;;;;;;9.54;46.40;100644.28;5013236;28;20526;-82
2023/04/07 04:29:35;;;;;;;39.22;14.30;;;;;;;9.65;45.77;100644.34;5014428;28;20029;-89
2023/04/07 04:32:01;;;;;;;40.67;14.30;;;;;;;9.64;45.09;100649.81;5025078;28;20045;-85
2023/04/07 04:34:26;;;;;;;42.17;15.90;;;;;;;9.55;45.58;100655.91;5021899;28;20022;-81
2023/04/07 04:36:52;;;;;;;48.75;17.00;;;;;;;9.58;45.94;100659.22;5034740;28;20026;-82
2023/04/07 04:39:17;;;;;;;50.00;15.57;;;;;;;9.68;45.88;100654.00;5032459;28;20038;-84
2023/04/07 04:41:43;;;;;;;28.20;14.55;;;;;;;9.81;45.34;100658.28;5013397;28;20073;-83
2023/04/07 04:44:09;;;;;;;42.17;13.85;;;;;;;9.71;45.22;100657.31;5024089;28;20752;-82
2023/04/07 04:46:35;;;;;;;23.60;13.95;;;;;;;9.75;45.29;100660.59;5010247;28;20026;-80
2023/04/07 04:49:00;;;;;;;29.88;14.18;;;;;;;9.69;45.31;100653.84;5010164;28;20401;-80
2023/04/07 04:51:26;;;;;;;58.03;16.38;;;;;;;9.69;45.06;100661.09;5009772;28;20036;-79
2023/04/07 04:53:51;;;;;;;38.97;13.88;;;;;;;9.72;45.29;100661.69;5008893;28;20057;-84
2023/04/07 04:56:17;;;;;;;71.68;18.33;;;;;;;9.70;45.29;100671.69;5010181;28;20057;-85
2023/04/07 04:58:45;;;;;;;37.47;14.35;;;;;;;9.73;45.38;100660.72;5010380;28;20033;-79
2023/04/07 05:01:13;;;;;;;40.92;13.88;;;;;;;9.77;45.25;100667.56;5010517;28;20401;-86
2023/04/07 05:03:39;;;;;;;25.35;12.85;;;;;;;9.87;44.33;100669.53;5010181;28;20026;-82
2023/04/07 05:06:05;;;;;;;53.67;15.20;;;;;;;9.86;45.08;100682.09;5009681;28;20032;-83
2023/04/07 05:08:30;;;;;;;48.47;15.02;;;;;;;9.90;44.63;100672.00;5008831;28;20034;-81
2023/04/07 05:10:56;;;;;;;33.28;14.32;;;;;;;9.85;44.98;100675.88;5009372;28;20022;-79
2023/04/07 05:13:21;;;;;;;28.70;15.18;;;;;;;9.91;44.45;100679.09;5010109;28;20033;-78
2023/04/07 05:15:47;;;;;;;52.10;16.83;;;;;;;9.96;44.53;100666.13;5011621;28;20054;-78
2023/04/07 05:18:13;;;;;;;31.20;13.70;;;;;;;10.10;44.27;100673.97;5034069;28;20420;-78
2023/04/07 05:20:38;;;;;;;34.97;15.05;;;;;;;10.08;43.77;100670.53;5047535;28;20033;-80
2023/04/07 05:23:04;;;;;;;37.63;14.88;;;;;;;10.05;44.08;100673.47;5038240;28;20037;-81
2023/04/07 05:25:29;;;;;;;35.42;15.55;;;;;;;10.14;43.98;100681.72;5030792;28;20029;-84
2023/04/07 05:27:56;;;;;;;40.10;15.32;;;;;;;10.28;43.84;100684.16;5029032;28;20025;-83
2023/04/07 05:30:21;;;;;;;39.25;15.75;;;;;;;10.38;43.59;100681.59;5037092;28;20029;-82
2023/04/07 05:32:46;;;;;;;31.98;16.35;;;;;;;10.43;43.26;100676.69;5040117;28;20052;-81
2023/04/07 05:35:12;;;;;;;40.00;16.75;;;;;;;10.61;43.43;100693.22;5037798;28;20453;-79
2023/04/07 05:37:38;;;;;;;44.47;17.25;;;;;;;10.68;42.90;100692.56;5010926;28;20037;-80
2023/04/07 05:40:03;;;;;;;30.55;15.57;;;;;;;10.76;43.05;100703.56;5031843;28;20026;-81
2023/04/07 05:42:30;;;;;;;36.15;16.05;;;;;;;10.84;42.85;100687.66;5041484;28;20078;-80
2023/04/07 05:44:56;;;;;;;29.85;14.63;;;;;;;10.88;42.44;100697.22;5034285;28;20514;-81
2023/04/07 05:47:21;;;;;;;54.00;16.30;;;;;;;10.89;41.99;100681.88;5040132;28;20053;-78
2023/04/07 05:49:46;;;;;;;43.58;15.20;;;;;;;10.97;42.33;100689.34;5041448;28;20113;-79
2023/04/07 05:52:13;;;;;;;36.72;15.80;;;;;;;11.10;42.33;100693.59;5039684;28;20109;-78
2023/04/07 05:54:41;;;;;;;36.75;14.82;;;;;;;11.12;41.56;100682.72;5028853;28;20037;-80
2023/04/07 05:57:07;;;;;;;37.33;15.05;;;;;;;11.25;41.82;100696.88;5029218;28;20540;-79
2023/04/07 05:59:36;;;;;;;25.58;13.98;;;;;;;11.29;40.89;100701.84;5031223;28;20065;-81
2023/04/07 06:02:02;;;;;;;28.85;14.02;;;;;;;11.25;40.69;100696.88;5028983;28;20101;-81
2023/04/07 06:04:28;;;;;;;29.88;14.50;;;;;;;11.18;40.95;100699.22;5028395;28;20033;-79
2023/04/07 06:06:54;;;;;;;34.53;14.48;;;;;;;11.31;41.07;100699.88;5009622;28;20069;-80
2023/04/07 06:09:23;;;;;;;69.57;17.45;;;;;;;11.33;41.03;100707.84;5028568;28;20033;-79
2023/04/07 06:11:48;;;;;;;39.03;15.93;;;;;;;11.33;40.39;100705.16;5026697;28;20021;-79
2023/04/07 06:14:14;;;;;;;30.98;13.68;;;;;;;11.31;40.65;100713.34;5028300;28;20041;-81
2023/04/07 06:16:39;;;;;;;44.97;14.88;;;;;;;11.27;40.64;100711.03;5027791;28;20105;-80
2023/04/07 06:19:06;;;;;;;30.42;14.55;;;;;;;11.33;40.34;100713.22;5028236;28;20037;-80
2023/04/07 06:21:32;;;;;;;61.33;15.40;;;;;;;11.07;40.70;100717.22;5025756;28;20042;-79
2023/04/07 06:23:58;;;;;;;44.17;15.98;;;;;;;11.21;41.01;100722.31;5027820;28;20043;-78
2023/04/07 06:26:23;;;;;;;33.72;13.68;;;;;;;11.29;40.38;100714.47;5033331;28;20029;-79
2023/04/07 06:28:49;;;;;;;25.60;13.57;;;;;;;11.50;40.80;100723.44;5040616;28;20029;-81
2023/04/07 06:31:14;;;;;;;32.55;15.32;;;;;;;11.43;40.40;100706.09;5035605;28;20030;-79
2023/04/07 06:33:39;;;;;;;23.73;14.07;;;;;;;11.60;40.30;100724.38;5011910;28;20136;-79
2023/04/07 06:36:05;;;;;;;25.70;14.40;;;;;;;11.67;39.90;100730.97;5008769;28;20493;-80
2023/04/07 06:38:31;;;;;;;32.40;15.57;;;;;;;11.67;39.72;100724.72;5008066;28;20034;-77
2023/04/07 06:40:56;;;;;;;39.97;14.90;;;;;;;11.87;40.60;100721.22;5022325;28;20038;-81
2023/04/07 06:43:22;;;;;;;29.52;14.52;;;;;;;12.00;40.00;100728.13;5008037;28;20496;-81
2023/04/07 06:45:47;;;;;;;22.02;13.38;;;;;;;12.16;39.45;100732.22;5008370;28;20032;-82
2023/04/07 06:48:13;;;;;;;22.70;14.30;;;;;;;12.07;39.38;100728.47;5007974;28;20038;-81
2023/04/07 06:50:38;;;;;;;29.50;15.75;;;;;;;12.33;39.95;100726.19;5022268;28;20125;-81
2023/04/07 06:53:04;;;;;;;23.50;14.60;;;;;;;12.45;39.09;100734.06;5007479;28;20040;-81
2023/04/07 06:55:30;;;;;;;22.45;14.55;;;;;;;12.46;38.75;100718.75;5007028;28;20037;-80
2023/04/07 06:57:55;;;;;;;30.85;15.02;;;;;;;12.60;39.04;100721.06;5007581;28;20029;-80
2023/04/07 07:00:24;;;;;;;42.08;15.70;;;;;;;12.75;39.02;100714.31;5007961;28;20061;-79
2023/04/07 07:02:50;;;;;;;27.35;12.98;;;;;;;12.89;38.54;100721.19;5007974;28;20116;-86
2023/04/07 07:05:16;;;;;;;33.80;15.18;;;;;;;13.05;37.68;100733.19;5009839;28;20064;-87
2023/04/07 07:07:41;;;;;;;27.70;14.98;;;;;;;13.12;37.62;100735.38;4987326;28;20047;-84
2023/04/07 07:10:09;;;;;;;41.60;15.35;;;;;;;13.12;37.19;100740.78;4986291;28;20038;-84
2023/04/07 07:12:34;;;;;;;33.90;13.98;;;;;;;13.22;37.46;100744.34;4986910;28;20422;-88
2023/04/07 07:15:00;;;;;;;33.40;14.07;;;;;;;13.19;36.80;100744.63;4987046;28;20039;-87
2023/04/07 07:17:25;;;;;;;27.38;12.95;;;;;;;13.34;37.02;100744.09;4992461;28;20038;-82
2023/04/07 07:19:51;;;;;;;51.00;14.68;;;;;;;13.43;36.94;100737.84;5002809;28;20054;-81
2023/04/07 07:22:16;;;;;;;42.60;14.38;;;;;;;13.44;35.85;100741.41;5011814;28;20041;-80
2023/04/07 07:24:41;;;;;;;32.53;13.35;;;;;;;13.42;35.80;100751.50;5013511;28;20034;-81
2023/04/07 07:27:07;;;;;;;43.67;14.23;;;;;;;13.42;35.79;100740.69;5003405;28;20054;-90
2023/04/07 07:29:32;;;;;;;27.92;13.68;;;;;;;13.44;35.78;100749.50;4992880;28;20048;-83
2023/04/07 07:31:58;;;;;;;33.20;13.80;;;;;;;13.36;35.49;100752.06;5008419;28;20209;-82
2023/04/07 07:34:23;;;;;;;30.85;12.38;;;;;;;13.23;35.83;100746.06;5016581;28;20065;-87
2023/04/07 07:36:49;;;;;;;31.98;14.27;;;;;;;13.05;35.84;100753.94;5031151;28;20034;-80
2023/04/07 07:39:14;;;;;;;22.60;12.02;;;;;;;12.93;35.94;100760.44;5034329;28;20575;-84
2023/04/07 07:41:40;;;;;;;27.80;14.30;;;;;;;12.96;36.42;100744.81;5042977;28;20065;-85
2023/04/07 07:44:06;;;;;;;28.23;13.57;;;;;;;13.15;36.22;100760.22;5031848;28;20087;-85
2023/04/07 07:46:31;;;;;;;27.83;12.73;;;;;;;13.20;35.42;100762.53;5031649;28;20094;-85
2023/04/07 07:48:57;;;;;;;31.55;12.57;;;;;;;13.06;35.84;100731.31;5022260;28;20139;-84
2023/04/07 07:51:22;;;;;;;35.53;13.38;;;;;;;13.37;35.88;100759.16;5027645;28;20103;-85
2023/04/07 07:53:48;;;;;;;28.60;13.68;;;;;;;13.44;36.08;100757.59;5012055;28;20022;-84
2023/04/07 07:56:13;;;;;;;29.92;13.98;;;;;;;13.55;35.89;100768.28;5011952;28;20056;-83
2023/04/07 07:58:38;;;;;;;41.28;14.25;;;;;;;13.34;35.57;100745.91;5012730;28;20588;-84
2023/04/07 08:01:04;;;;;;;20.05;11.82;;;;;;;13.45;34.97;100756.63;5011910;28;20018;-83
2023/04/07 08:03:30;;;;;;;27.92;13.27;;;;;;;13.62;34.98;100753.22;5011735;28;20032;-84
2023/04/07 08:05:56;;;;;;;35.28;13.30;;;;;;;13.61;34.91;100759.59;5011627;28;20029;-85
2023/04/07 08:08:21;;;;;;;19.50;11.57;;;;;;;13.84;34.56;100763.75;5012170;28;20029;-82
2023/04/07 08:10:47;;;;;;;21.40;12.18;;;;;;;13.63;34.71;100763.03;5012867;28;20037;-84
2023/04/07 08:13:13;;;;;;;46.13;13.48;;;;;;;13.77;34.93;100762.63;5014456;28;20084;-84
2023/04/07 08:15:39;;;;;;;26.40;11.57;;;;;;;14.02;34.57;100756.63;5014219;28;20026;-84
2023/04/07 08:18:05;;;;;;;28.48;12.80;;;;;;;14.12;33.91;100762.03;5024251;28;20029;-83
2023/04/07 08:20:31;;;;;;;25.58;13.82;;;;;;;14.26;33.95;100768.84;5031895;28;20081;-84
2023/04/07 08:22:57;;;;;;;29.08;11.73;;;;;;;14.17;33.75;100765.16;5023777;28;20037;-84
2023/04/07 08:25:22;;;;;;;28.98;13.40;;;;;;;14.23;33.49;100767.28;5026607;28;20049;-83
2023/04/07 08:27:48;;;;;;;39.03;12.18;;;;;;;14.16;33.99;100764.28;5011281;28;20026;-83
2023/04/07 08:30:13;;;;;;;33.40;11.57;;;;;;;14.22;33.94;100759.31;5011102;28;20049;-83
2023/04/07 08:32:41;;;;;;;27.38;11.15;;;;;;;14.46;33.18;100754.31;5010073;28;20054;-85
2023/04/07 08:35:07;;;;;;;27.80;12.82;;;;;;;14.43;33.54;100760.03;5011440;28;20091;-84
2023/04/07 08:37:34;;;;;;;33.65;12.52;;;;;;;14.58;32.66;100764.81;5012920;28;20108;-84
2023/04/07 08:40:00;;;;;;;30.85;12.23;;;;;;;14.69;33.04;100766.50;5023801;28;20068;-83
2023/04/07 08:42:31;;;;;;;48.63;13.13;;;;;;;14.84;32.83;100765.00;5014604;28;20034;-84
2023/04/07 08:45:01;;;;;;;33.53;17.70;;;;;;;15.10;32.74;100765.19;5010126;28;20026;-87
2023/04/07 08:47:29;;;;;;;32.92;12.77;;;;;;;14.92;32.42;100766.97;5011521;28;20030;-84
2023/04/07 08:49:59;;;;;;;26.70;12.23;;;;;;;14.93;33.01;100769.53;5011603;28;20800;-84
2023/04/07 08:52:33;;;;;;;41.30;15.20;;;;;;;14.90;32.26;100763.53;5011652;28;20030;-85
2023/04/07 08:55:01;;;;;;;23.80;12.80;;;;;;;14.84;32.33;100774.97;5011312;28;20026;-84
2023/04/07 08:57:30;;;;;;;30.38;12.60;;;;;;;14.68;32.26;100781.88;5011537;28;20030;-84
2023/04/07 08:59:59;;;;;;;36.22;15.00;;;;;;;14.88;32.36;100788.09;5011457;28;20021;-85
2023/04/07 09:02:25;;;;;;;31.27;13.88;;;;;;;14.94;32.27;100782.06;5011656;28;20026;-84
2023/04/07 09:04:51;;;;;;;29.42;11.95;;;;;;;15.02;32.37;100784.88;5012065;28;20026;-84
2023/04/07 09:07:16;;;;;;;24.23;12.20;;;;;;;14.87;32.48;100797.19;5011961;28;20099;-83
2023/04/07 09:09:42;;;;;;;23.83;13.32;;;;;;;14.71;32.61;100791.53;5013304;28;20036;-84
2023/04/07 09:12:07;;;;;;;24.20;11.65;;;;;;;14.59;32.63;100798.13;5013518;28;20026;-85
2023/04/07 09:14:32;;;;;;;26.17;13.93;;;;;;;14.35;33.16;100789.66;5022003;28;20077;-83
2023/04/07 09:16:59;;;;;;;31.80;13.10;;;;;;;14.34;32.98;100796.06;5031285;28;20045;-84
2023/04/07 09:19:26;;;;;;;25.75;12.27;;;;;;;14.46;33.39;100792.22;5023779;28;20080;-84
2023/04/07 09:21:52;;;;;;;26.15;12.15;;;;;;;14.61;33.04;100798.88;5013580;28;20121;-83
2023/04/07 09:24:26;;;;;;;32.10;12.98;;;;;;;14.72;32.87;100806.81;5010832;28;20036;-84
2023/04/07 09:27:10;;;;;;;27.27;13.65;;;;;;;14.77;32.93;100798.25;5028968;28;20038;-84
2023/04/07 09:29:36;;;;;;;36.00;13.63;;;;;;;14.79;32.94;100802.50;5029546;28;20040;-84
2023/04/07 09:32:02;;;;;;;122.93;22.27;;;;;;;14.92;33.15;100786.75;4995680;28;20529;-84
2023/04/07 09:34:31;;;;;;;32.45;13.70;;;;;;;15.00;33.06;100808.56;5028493;28;20099;-83
2023/04/07 09:36:57;;;;;;;38.17;14.07;;;;;;;15.22;32.76;100797.34;5028837;28;20559;-84
2023/04/07 09:39:24;;;;;;;28.55;12.88;;;;;;;15.19;32.60;100799.50;5028755;28;20075;-85
2023/04/07 09:41:50;;;;;;;32.55;14.05;;;;;;;15.22;33.03;100807.31;5028226;28;20029;-84
2023/04/07 09:44:17;;;;;;;27.60;12.68;;;;;;;15.14;33.17;100805.34;5027563;28;20073;-85
2023/04/07 09:46:56;;;;;;;36.97;12.82;;;;;;;15.23;32.88;100809.88;5027539;28;20044;-84
2023/04/07 09:49:24;;;;;;;37.30;12.27;;;;;;;15.47;33.23;100809.34;5028585;28;20142;-84
2023/04/07 09:52:03;;;;;;;23.95;12.05;;;;;;;15.52;32.59;100811.59;5028122;28;20116;-83
2023/04/07 09:54:36;;;;;;;25.85;11.90;;;;;;;15.32;33.03;100796.44;5037392;28;20033;-83
2023/04/07 09:57:06;;;;;;;25.35;13.18;;;;;;;15.22;33.12;100813.59;5032645;28;20488;-84
2023/04/07 09:59:34;;;;;;;23.38;12.82;;;;;;;15.27;33.02;100799.59;5037465;28;20033;-83
2023/04/07 10:02:00;;;;;;;37.50;12.57;;;;;;;15.46;33.01;100810.34;5029785;28;20543;-84
2023/04/07 10:04:27;;;;;;;21.50;10.95;;;;;;;15.62;32.75;100805.13;5020433;28;20045;-83
2023/04/07 10:06:54;;;;;;;23.75;11.77;;;;;;;15.53;33.40;100799.78;5013375;28;20413;-83
2023/04/07 10:09:24;;;;;;;25.95;11.68;;;;;;;15.59;33.08;100791.88;5014128;28;20040;-85
2023/04/07 10:11:51;;;;;;;19.63;11.25;;;;;;;15.86;33.05;100800.97;5024248;28;20065;-83
2023/04/07 10:14:18;;;;;;;42.67;13.05;;;;;;;16.05;33.09;100801.66;5034443;28;20380;-84
2023/04/07 10:16:45;;;;;;;32.85;12.55;;;;;;;16.32;32.91;100807.00;5034620;28;20088;-84
2023/04/07 10:19:12;;;;;;;27.38;12.10;;;;;;;16.15;32.69;100799.69;5042440;28;20096;-83
2023/04/07 10:21:42;;;;;;;22.42;10.75;;;;;;;16.22;32.69;100819.78;5019333;28;20026;-83
2023/04/07 10:24:19;;;;;;;18.63;9.98;;;;;;;16.44;32.67;100812.16;5016680;28;20037;-84
2023/04/07 10:26:52;;;;;;;50.22;12.35;;;;;;;16.59;32.59;100810.59;5012285;28;20180;-83
2023/04/07 10:29:18;;;;;;;29.92;12.00;;;;;;;16.44;32.08;100795.88;5010554;28;20056;-83
2023/04/07 10:31:45;;;;;;;23.70;11.40;;;;;;;16.51;32.32;100818.66;5008750;28;20054;-85
2023/04/07 10:34:11;;;;;;;18.08;11.10;;;;;;;16.63;32.38;100801.13;5010905;28;20033;-84
2023/04/07 10:37:12;;;;;;;21.63;12.48;;;;;;;16.74;32.24;100812.59;5010725;28;20064;-86
2023/04/07 10:39:37;;;;;;;24.67;11.23;;;;;;;16.69;32.01;100800.50;5009403;28;20105;-82
2023/04/07 10:42:03;;;;;;;25.27;11.38;;;;;;;16.70;32.00;100807.63;5010313;28;20108;-87
2023/04/07 10:44:37;;;;;;;32.38;12.45;;;;;;;16.65;32.74;100823.53;5010199;28;20088;-83
2023/04/07 10:47:05;;;;;;;21.50;11.05;;;;;;;16.77;32.29;100808.69;5011964;28;20033;-81
2023/04/07 10:49:33;;;;;;;28.70;11.60;;;;;;;16.73;32.38;100815.44;5009765;28;20105;-79
2023/04/07 10:52:11;;;;;;;42.28;12.75;;;;;;;16.86;32.12;100824.03;5010248;28;20092;-82
2023/04/07 10:54:36;;;;;;;30.90;11.23;;;;;;;16.69;32.23;100800.50;5012731;28;20136;-82
2023/04/07 10:57:02;;;;;;;27.42;12.30;;;;;;;16.78;32.35;100810.41;5013361;28;20541;-81
2023/04/07 10:59:31;;;;;;;23.48;11.73;;;;;;;16.62;32.22;100813.00;5015219;28;20022;-84
2023/04/07 11:02:12;;;;;;;33.95;12.77;;;;;;;16.81;32.09;100815.50;5014832;28;20042;-82
2023/04/07 11:04:45;;;;;;;29.15;12.77;;;;;;;16.90;32.41;100814.56;5027420;28;20022;-83
2023/04/07 11:07:12;;;;;;;39.60;11.15;;;;;;;16.78;32.21;100805.81;5025884;28;20041;-82
2023/04/07 11:09:39;;;;;;;38.20;12.43;;;;;;;16.69;32.50;100816.81;5030447;28;20025;-84
2023/04/07 11:12:05;;;;;;;51.58;13.23;;;;;;;16.63;32.01;100809.28;5031365;28;20026;-83
2023/04/07 11:14:33;;;;;;;43.10;14.25;;;;;;;16.66;32.82;100807.13;5012978;28;20030;-83